Time;durP1;ratioP1;P1;durP2;ratioP2;P2;SDS_P1;SDS_P2;PMS_P1;PMS_P2;Temp;Humidity;BMP_temperature;BMP_pressure;BME280_temperature;BME280_humidity;BME280_pressure;Samples;Min_cycle;Max_cycle;Signal;HPM_P1;HPM_P2
2023/08/27 00:00:38;;;;;;;4.17;2.70;;;;;;;19.10;nan;99014.53;5055975;28;20212;-77
2023/08/27 00:03:03;;;;;;;3.40;3.03;;;;;;;19.01;nan;99009.19;5053477;28;20426;-76
2023/08/27 00:05:29;;;;;;;4.60;3.03;;;;;;;19.02;nan;99012.69;5052629;28;20841;-77
2023/08/27 00:07:54;;;;;;;3.03;2.73;;;;;;;19.04;nan;99016.03;5053757;28;20350;-76
2023/08/27 00:10:20;;;;;;;6.73;2.40;;;;;;;19.02;nan;99010.84;5054136;28;20348;-77
2023/08/27 00:12:45;;;;;;;4.60;2.90;;;;;;;19.04;nan;99018.69;5049392;28;20242;-76
2023/08/27 00:15:11;;;;;;;5.30;2.53;;;;;;;19.06;nan;99000.69;5053741;28;20204;-76
2023/08/27 00:17:36;;;;;;;6.97;3.00;;;;;;;19.01;nan;98992.41;5052682;28;20293;-76
2023/08/27 00:20:10;;;;;;;3.77;2.60;;;;;;;18.93;nan;98984.38;5053549;28;20323;-76
2023/08/27 00:22:37;;;;;;;3.43;2.70;;;;;;;18.90;nan;98984.72;5054115;28;20232;-76
2023/08/27 00:25:03;;;;;;;3.87;2.77;;;;;;;18.88;nan;98973.44;5055872;28;20472;-77
2023/08/27 00:27:28;;;;;;;3.37;2.53;;;;;;;18.88;nan;98976.94;5052897;28;20442;-76
2023/08/27 00:29:53;;;;;;;5.63;3.40;;;;;;;18.89;nan;98978.56;5057147;28;20463;-76
2023/08/27 00:32:19;;;;;;;4.60;2.80;;;;;;;18.93;nan;98989.72;5056889;28;20205;-76
2023/08/27 00:34:44;;;;;;;4.40;2.40;;;;;;;18.95;nan;98974.41;5056942;28;20845;-77
2023/08/27 00:37:10;;;;;;;5.37;3.00;;;;;;;18.94;nan;98957.63;5037139;28;20201;-76
2023/08/27 00:39:38;;;;;;;7.00;3.57;;;;;;;18.89;nan;98943.16;5032958;28;20709;-77
2023/08/27 00:42:05;;;;;;;7.33;3.07;;;;;;;18.84;nan;98953.47;5036070;28;20307;-76
2023/08/27 00:44:30;;;;;;;4.73;3.03;;;;;;;18.81;nan;98961.78;5021097;28;20455;-77
2023/08/27 00:46:57;;;;;;;4.20;2.47;;;;;;;18.83;nan;98962.47;5047159;28;20455;-76
2023/08/27 00:49:23;;;;;;;4.07;2.57;;;;;;;18.84;nan;98970.25;5053643;28;20274;-77
2023/08/27 00:51:49;;;;;;;4.23;3.10;;;;;;;18.83;nan;98965.94;5053018;28;20470;-76
2023/08/27 00:54:15;;;;;;;5.20;2.90;;;;;;;18.78;nan;98985.06;5052877;28;20231;-77
2023/08/27 00:56:44;;;;;;;5.30;2.53;;;;;;;18.77;nan;98978.09;5033597;28;20898;-76
2023/08/27 00:59:11;;;;;;;6.43;3.07;;;;;;;18.75;nan;98956.13;5032115;28;20451;-77
2023/08/27 01:01:39;;;;;;;4.67;3.07;;;;;;;18.73;nan;98943.97;5055128;28;20516;-77
2023/08/27 01:04:04;;;;;;;4.30;3.10;;;;;;;18.70;nan;98953.09;5034217;28;20441;-77
2023/08/27 01:06:30;;;;;;;12.30;2.90;;;;;;;18.70;nan;98960.25;5052760;28;20278;-77
2023/08/27 01:09:21;;;;;;;3.53;2.70;;;;;;;18.69;nan;98950.63;5049493;28;20212;-76
2023/08/27 01:12:09;;;;;;;4.13;2.80;;;;;;;18.67;nan;98957.94;5033285;28;20293;-76
2023/08/27 01:14:36;;;;;;;4.03;2.67;;;;;;;18.66;nan;98962.41;5018146;28;20456;-76
2023/08/27 01:17:06;;;;;;;4.33;3.43;;;;;;;18.69;nan;98932.00;5050881;28;20425;-75
2023/08/27 01:19:33;;;;;;;7.20;2.87;;;;;;;18.66;nan;98933.16;5052802;28;20487;-77
2023/08/27 01:21:58;;;;;;;4.60;2.70;;;;;;;18.66;nan;98964.22;5033281;28;20464;-76
2023/08/27 01:24:24;;;;;;;3.17;2.53;;;;;;;18.67;nan;98968.56;5031854;28;20447;-77
2023/08/27 01:27:03;;;;;;;5.33;2.63;;;;;;;18.69;nan;98961.25;5050829;28;20193;-76
2023/08/27 01:29:39;;;;;;;3.83;2.57;;;;;;;18.70;nan;98954.94;5031644;28;20825;-77
2023/08/27 01:32:28;;;;;;;5.53;2.87;;;;;;;18.73;nan;98947.44;5031577;28;20478;-77
2023/08/27 01:34:55;;;;;;;4.13;3.23;;;;;;;18.75;nan;98939.34;5030864;28;20459;-77
2023/08/27 01:37:21;;;;;;;5.50;3.40;;;;;;;18.70;nan;98905.22;5027888;28;20987;-76
2023/08/27 01:39:46;;;;;;;5.13;2.83;;;;;;;18.66;nan;98901.25;5024542;28;20476;-77
2023/08/27 01:42:12;;;;;;;4.30;2.87;;;;;;;18.63;nan;98900.72;5028558;28;20331;-77
2023/08/27 01:44:38;;;;;;;3.33;3.03;;;;;;;18.58;nan;98899.41;5049770;28;20193;-77
2023/08/27 01:47:05;;;;;;;2.70;2.50;;;;;;;18.55;nan;98880.28;5052092;28;20458;-77
2023/08/27 01:49:31;;;;;;;3.07;2.87;;;;;;;18.51;nan;98866.47;5030931;28;20763;-77
2023/08/27 01:51:56;;;;;;;4.33;2.80;;;;;;;18.48;nan;98852.69;5031566;28;20470;-77
2023/08/27 01:54:22;;;;;;;7.67;3.80;;;;;;;18.44;nan;98856.69;5051277;28;20204;-76
2023/08/27 01:56:48;;;;;;;5.03;3.07;;;;;;;18.41;nan;98873.78;5033097;28;20195;-76
2023/08/27 01:59:13;;;;;;;5.07;3.33;;;;;;;18.36;nan;98876.09;5031266;28;20459;-78
2023/08/27 02:01:38;;;;;;;5.73;3.30;;;;;;;18.34;nan;98883.44;5031437;28;20193;-78
2023/08/27 02:04:04;;;;;;;3.50;2.30;;;;;;;18.35;nan;98880.59;5023326;28;20197;-77
2023/08/27 02:06:30;;;;;;;3.73;3.30;;;;;;;18.34;nan;98860.34;5016334;28;20201;-77
2023/08/27 02:08:56;;;;;;;4.30;2.73;;;;;;;18.37;nan;98851.19;5032661;28;20205;-77
2023/08/27 02:11:21;;;;;;;4.00;2.77;;;;;;;18.42;nan;98885.28;5036345;28;20636;-78
2023/08/27 02:13:47;;;;;;;3.63;2.50;;;;;;;18.45;nan;98923.00;5048422;28;20243;-78
2023/08/27 02:16:13;;;;;;;6.70;2.30;;;;;;;18.50;nan;98962.41;5042253;28;20185;-78
2023/08/27 02:18:38;;;;;;;3.47;3.03;;;;;;;18.52;nan;98979.00;5030616;28;20451;-78
2023/08/27 02:21:04;;;;;;;3.93;3.07;;;;;;;18.55;nan;98968.03;5036617;28;20234;-78
2023/08/27 02:23:30;;;;;;;5.40;4.07;;;;;;;18.58;nan;98938.47;5032357;28;20189;-79
2023/08/27 02:25:55;;;;;;;8.60;3.80;;;;;;;18.59;nan;98929.50;5032842;28;20197;-79
2023/08/27 02:28:21;;;;;;;5.73;3.37;;;;;;;18.58;nan;98943.78;5053493;28;20458;-79
2023/08/27 02:30:55;;;;;;;4.53;3.37;;;;;;;18.55;nan;98957.41;5016977;28;20205;-79
2023/08/27 02:33:24;;;;;;;2.97;2.73;;;;;;;18.54;nan;98953.91;5028020;28;20181;-78
2023/08/27 02:35:50;;;;;;;4.50;3.42;;;;;;;18.54;nan;98956.56;5050192;28;20856;-78
2023/08/27 02:38:15;;;;;;;4.23;2.87;;;;;;;18.57;nan;98944.78;5036844;28;20196;-78
2023/08/27 02:40:41;;;;;;;6.13;3.00;;;;;;;18.57;nan;98939.44;5039200;28;20200;-78
2023/08/27 02:43:07;;;;;;;4.17;3.30;;;;;;;18.61;nan;98942.63;5056617;28;20246;-77
2023/08/27 02:45:32;;;;;;;5.23;3.37;;;;;;;18.64;nan;98950.28;5032275;28;20204;-78
2023/08/27 02:47:58;;;;;;;3.73;3.07;;;;;;;18.67;nan;98942.78;5036679;28;20461;-78
2023/08/27 02:50:23;;;;;;;6.03;3.60;;;;;;;18.67;nan;98908.22;5039049;28;20205;-77
2023/08/27 02:52:49;;;;;;;9.47;3.93;;;;;;;18.53;nan;98861.84;5035363;28;20215;-77
2023/08/27 02:55:15;;;;;;;5.50;4.57;;;;;;;18.39;nan;98835.06;5033096;28;20607;-77
2023/08/27 02:57:41;;;;;;;4.93;3.27;;;;;;;18.32;nan;98841.06;5052439;28;20720;-78
2023/08/27 03:00:07;;;;;;;6.43;3.20;;;;;;;18.31;nan;98858.00;5056745;28;20470;-78
2023/08/27 03:02:32;;;;;;;4.63;3.13;;;;;;;18.32;nan;98880.13;5038761;28;20188;-77
2023/08/27 03:05:04;;;;;;;6.43;4.67;;;;;;;18.35;nan;98893.91;5042258;28;20451;-78
2023/08/27 03:07:30;;;;;;;5.97;2.83;;;;;;;18.41;nan;98899.56;5061164;28;20193;-77
2023/08/27 03:09:55;;;;;;;5.20;3.43;;;;;;;18.42;nan;98906.56;5041023;28;20501;-78
2023/08/27 03:12:21;;;;;;;4.73;3.33;;;;;;;18.44;nan;98913.34;5041896;28;20305;-78
2023/08/27 03:14:47;;;;;;;3.80;3.30;;;;;;;18.49;nan;98916.34;5058815;28;20308;-78
2023/08/27 03:17:12;;;;;;;7.20;3.77;;;;;;;18.53;nan;98908.88;5035030;28;20356;-77
2023/08/27 03:19:37;;;;;;;4.53;3.77;;;;;;;18.51;nan;98921.50;5039646;28;20258;-78
2023/08/27 03:22:03;;;;;;;4.57;4.00;;;;;;;18.48;nan;98924.50;5061134;28;20197;-78
2023/08/27 03:24:29;;;;;;;3.40;3.10;;;;;;;18.47;nan;98915.69;5041442;28;20201;-78
2023/08/27 03:26:54;;;;;;;3.67;3.37;;;;;;;18.47;nan;98893.56;5062596;28;20192;-78
2023/08/27 03:29:21;;;;;;;5.77;3.30;;;;;;;18.44;nan;98892.06;5042131;28;20565;-78
2023/08/27 03:31:47;;;;;;;6.00;3.87;;;;;;;18.42;nan;98895.91;5037783;28;20551;-78
2023/08/27 03:34:12;;;;;;;10.00;4.70;;;;;;;18.45;nan;98903.56;5053560;28;20999;-78
2023/08/27 03:36:38;;;;;;;4.40;3.77;;;;;;;18.42;nan;98894.09;5042572;28;20679;-78
2023/08/27 03:39:04;;;;;;;4.27;3.10;;;;;;;18.40;nan;98884.59;5039400;28;20201;-77
2023/08/27 03:41:30;;;;;;;4.60;3.63;;;;;;;18.39;nan;98891.75;5042323;28;20829;-77
2023/08/27 03:43:55;;;;;;;8.10;3.60;;;;;;;18.41;nan;98884.44;5061093;28;20518;-78
2023/08/27 03:46:21;;;;;;;5.10;3.20;;;;;;;18.45;nan;98874.31;5042526;28;20726;-77
2023/08/27 03:48:47;;;;;;;3.37;2.90;;;;;;;18.45;nan;98853.88;5037653;28;20890;-77
2023/08/27 03:51:12;;;;;;;4.77;3.93;;;;;;;18.41;nan;98863.16;5035933;28;20284;-77
2023/08/27 03:53:38;;;;;;;4.80;4.03;;;;;;;18.32;nan;98856.19;5039907;28;20239;-77
2023/08/27 03:56:04;;;;;;;6.83;3.43;;;;;;;18.25;nan;98858.66;5037299;28;20253;-77
2023/08/27 03:58:31;;;;;;;4.67;3.97;;;;;;;18.16;nan;98862.31;5038921;28;20434;-78
2023/08/27 04:00:56;;;;;;;10.40;3.53;;;;;;;18.12;nan;98866.31;5057398;28;21471;-77
2023/08/27 04:03:22;;;;;;;4.30;3.60;;;;;;;18.10;nan;98862.97;5039402;28;20188;-77
2023/08/27 04:05:49;;;;;;;5.63;4.37;;;;;;;18.09;nan;98863.97;5055455;28;21197;-77
2023/08/27 04:08:15;;;;;;;4.70;4.17;;;;;;;18.09;nan;98864.81;5040379;28;20505;-77
2023/08/27 04:10:53;;;;;;;5.60;3.90;;;;;;;18.13;nan;98873.28;5061623;22;21065;-76
2023/08/27 04:13:19;;;;;;;4.60;3.37;;;;;;;18.17;nan;98884.41;5018101;28;20818;-77
2023/08/27 04:16:02;;;;;;;3.60;3.30;;;;;;;18.24;nan;98894.22;5037436;28;20447;-76
2023/08/27 04:18:28;;;;;;;4.13;3.20;;;;;;;18.29;nan;98907.84;5035435;28;20498;-76
2023/08/27 04:20:54;;;;;;;3.90;3.47;;;;;;;18.38;nan;98910.53;5035361;28;20483;-76
2023/08/27 04:23:20;;;;;;;3.37;2.73;;;;;;;18.43;nan;98911.69;5039882;28;20536;-76
2023/08/27 04:25:47;;;;;;;4.10;3.63;;;;;;;18.43;nan;98908.22;5061067;28;20204;-76
2023/08/27 04:28:13;;;;;;;7.90;3.87;;;;;;;18.42;nan;98895.91;5040165;28;20779;-76
2023/08/27 04:30:39;;;;;;;5.00;3.57;;;;;;;18.39;nan;98897.06;5044326;28;20437;-76
2023/08/27 04:33:08;;;;;;;3.43;3.17;;;;;;;18.41;nan;98894.25;5044479;28;20504;-77
2023/08/27 04:35:33;;;;;;;3.37;3.07;;;;;;;18.45;nan;98898.25;5042375;28;20200;-77
2023/08/27 04:37:59;;;;;;;5.70;2.97;;;;;;;18.50;nan;98885.28;5062516;28;20635;-77
2023/08/27 04:40:25;;;;;;;5.57;3.87;;;;;;;18.51;nan;98887.75;5058680;28;20544;-77
2023/08/27 04:42:50;;;;;;;5.23;3.53;;;;;;;18.47;nan;98889.09;5063417;28;20459;-77
2023/08/27 04:45:16;;;;;;;3.93;3.23;;;;;;;18.45;nan;98876.97;5043947;28;20289;-77
2023/08/27 04:47:41;;;;;;;5.50;3.50;;;;;;;18.38;nan;98871.47;5040660;28;20220;-77
2023/08/27 04:50:08;;;;;;;3.17;2.90;;;;;;;18.32;nan;98872.97;5058297;28;20212;-77
2023/08/27 04:52:34;;;;;;;4.00;3.43;;;;;;;18.33;nan;98876.44;5058055;28;20219;-77
2023/08/27 04:55:00;;;;;;;3.93;3.00;;;;;;;18.34;nan;98891.41;5043827;28;20459;-76
2023/08/27 04:57:26;;;;;;;3.63;3.03;;;;;;;18.39;nan;98897.06;5061211;28;20818;-76
2023/08/27 04:59:54;;;;;;;6.10;3.17;;;;;;;18.42;nan;98891.44;5062213;28;20455;-76
2023/08/27 05:02:19;;;;;;;7.73;3.03;;;;;;;18.45;nan;98895.59;5058063;28;20807;-77
2023/08/27 05:04:45;;;;;;;4.97;3.20;;;;;;;18.44;nan;98893.91;5053177;28;20462;-78
2023/08/27 05:07:12;;;;;;;4.63;3.03;;;;;;;18.38;nan;98890.06;5034295;28;20201;-77
2023/08/27 05:09:37;;;;;;;4.33;2.87;;;;;;;18.37;nan;98895.56;5028302;28;20877;-78
2023/08/27 05:12:03;;;;;;;3.83;3.47;;;;;;;18.37;nan;98882.28;5013495;28;20239;-77
2023/08/27 05:14:29;;;;;;;3.53;3.07;;;;;;;18.34;nan;98884.28;5035223;28;20201;-77
2023/08/27 05:16:54;;;;;;;4.23;3.83;;;;;;;18.28;nan;98879.63;5014769;28;20193;-78
2023/08/27 05:19:19;;;;;;;3.67;3.10;;;;;;;18.23;nan;98871.31;5017709;28;20198;-77
2023/08/27 05:21:45;;;;;;;7.43;4.17;;;;;;;18.24;nan;98872.94;5015204;28;20189;-78
2023/08/27 05:24:10;;;;;;;5.07;3.43;;;;;;;18.29;nan;98878.63;5033841;28;20194;-77
2023/08/27 05:26:36;;;;;;;4.57;3.13;;;;;;;18.34;nan;98894.91;5033015;28;20190;-77
2023/08/27 05:29:02;;;;;;;5.97;4.00;;;;;;;18.41;nan;98900.38;5015610;28;20717;-77
2023/08/27 05:31:27;;;;;;;5.20;3.20;;;;;;;18.48;nan;98906.72;5033719;28;20476;-77
2023/08/27 05:33:53;;;;;;;6.10;3.63;;;;;;;18.55;nan;98902.41;5013462;28;20713;-77
2023/08/27 05:36:20;;;;;;;6.43;3.90;;;;;;;18.61;nan;98882.28;5016055;28;20438;-77
2023/08/27 05:38:46;;;;;;;8.23;3.60;;;;;;;18.66;nan;98882.63;5015258;28;20659;-77
2023/08/27 05:41:11;;;;;;;3.93;2.97;;;;;;;18.68;nan;98896.56;5035852;28;21244;-77
2023/08/27 05:43:36;;;;;;;5.10;2.70;;;;;;;18.69;nan;98897.41;5015307;28;21017;-78
2023/08/27 05:46:02;;;;;;;4.80;3.20;;;;;;;18.70;nan;98883.94;5014297;28;20262;-77
2023/08/27 05:48:29;;;;;;;5.33;2.90;;;;;;;18.71;nan;98874.97;5017796;28;20204;-77
2023/08/27 05:50:54;;;;;;;5.63;3.40;;;;;;;18.71;nan;98859.00;5034487;28;20798;-77
2023/08/27 05:53:19;;;;;;;5.77;3.27;;;;;;;18.65;nan;98854.34;5031629;28;20220;-77
2023/08/27 05:55:45;;;;;;;6.73;3.33;;;;;;;18.59;nan;98863.00;5015148;28;20737;-77
2023/08/27 05:58:10;;;;;;;4.43;3.40;;;;;;;18.54;nan;98857.34;5008785;28;20204;-77
2023/08/27 06:00:37;;;;;;;4.20;3.33;;;;;;;18.54;nan;98865.31;5015263;28;20213;-78
2023/08/27 06:03:04;;;;;;;3.50;3.20;;;;;;;18.50;nan;98854.19;5007433;28;20475;-78
2023/08/27 06:05:29;;;;;;;5.53;3.50;;;;;;;18.47;nan;98856.34;5007617;28;20424;-78
2023/08/27 06:07:54;;;;;;;3.70;2.80;;;;;;;18.46;nan;98862.66;5014695;28;21176;-79
2023/08/27 06:10:20;;;;;;;5.03;3.10;;;;;;;18.45;nan;98861.00;5037116;28;20213;-77
2023/08/27 06:12:46;;;;;;;6.40;3.30;;;;;;;18.46;nan;98873.31;5030849;28;20239;-77
2023/08/27 06:15:11;;;;;;;3.57;2.80;;;;;;;18.48;nan;98858.03;5030331;28;20249;-77
2023/08/27 06:17:37;;;;;;;3.70;2.87;;;;;;;18.53;nan;98866.34;5031597;28;20189;-77
2023/08/27 06:20:02;;;;;;;3.97;3.23;;;;;;;18.57;nan;98876.44;5030734;28;20204;-77
2023/08/27 06:22:28;;;;;;;4.07;3.33;;;;;;;18.62;nan;98881.28;5029970;28;20201;-77
2023/08/27 06:24:55;;;;;;;2.97;2.20;;;;;;;18.68;nan;98880.59;5032115;28;20238;-77
2023/08/27 06:27:20;;;;;;;2.40;2.20;;;;;;;18.73;nan;98870.28;5031064;28;20439;-77
2023/08/27 06:29:46;;;;;;;8.87;3.10;;;;;;;18.77;nan;98869.00;5032501;28;21107;-77
2023/08/27 06:32:15;;;;;;;4.53;2.33;;;;;;;18.78;nan;98854.69;5030919;28;20270;-77
2023/08/27 06:34:41;;;;;;;3.80;2.80;;;;;;;18.82;nan;98849.03;5029820;28;20842;-78
2023/08/27 06:37:07;;;;;;;3.28;2.70;;;;;;;18.85;nan;98848.69;5028887;28;20412;-77
2023/08/27 06:39:33;;;;;;;8.13;2.80;;;;;;;18.86;nan;98834.41;5048139;28;21182;-77
2023/08/27 06:41:58;;;;;;;5.10;2.27;;;;;;;18.88;nan;98824.44;5031329;28;20283;-78
2023/08/27 06:44:25;;;;;;;5.43;2.60;;;;;;;18.93;nan;98824.72;5028046;28;20192;-78
2023/08/27 06:46:54;;;;;;;2.40;2.20;;;;;;;18.98;nan;98827.69;5031359;28;20429;-78
2023/08/27 06:49:20;;;;;;;1.93;1.73;;;;;;;19.00;nan;98831.84;5044901;28;20490;-77
2023/08/27 06:51:45;;;;;;;3.20;2.50;;;;;;;19.02;nan;98842.34;5031576;28;20823;-78
2023/08/27 06:54:12;;;;;;;2.63;1.80;;;;;;;19.07;nan;98852.50;5032818;28;20635;-77
2023/08/27 06:56:38;;;;;;;2.80;1.77;;;;;;;19.12;nan;98856.28;5030926;28;20458;-77
2023/08/27 06:59:03;;;;;;;2.33;1.90;;;;;;;19.19;nan;98869.75;5031512;28;20435;-77
2023/08/27 07:01:28;;;;;;;2.93;2.40;;;;;;;19.24;nan;98873.53;5047108;28;20185;-77
2023/08/27 07:03:54;;;;;;;6.43;2.30;;;;;;;19.33;nan;98876.19;5050338;28;20196;-77
2023/08/27 07:06:20;;;;;;;3.23;1.43;;;;;;;19.39;nan;98878.19;5051574;28;20270;-77
2023/08/27 07:08:45;;;;;;;2.70;2.50;;;;;;;19.42;nan;98883.16;5031184;28;20189;-77
2023/08/27 07:11:11;;;;;;;2.70;1.90;;;;;;;19.48;nan;98889.63;5030292;28;20470;-78
2023/08/27 07:13:37;;;;;;;3.50;1.50;;;;;;;19.50;nan;98895.63;5031818;28;20201;-78
2023/08/27 07:16:03;;;;;;;2.17;1.80;;;;;;;19.53;nan;98895.28;5051439;28;20451;-78
2023/08/27 07:18:29;;;;;;;4.00;2.17;;;;;;;19.57;nan;98897.41;5033144;28;20189;-77
2023/08/27 07:20:54;;;;;;;2.00;1.50;;;;;;;19.60;nan;98910.38;5032534;28;20324;-77
2023/08/27 07:23:20;;;;;;;3.37;2.13;;;;;;;19.63;nan;98904.72;5033665;28;20555;-77
2023/08/27 07:25:45;;;;;;;1.50;1.40;;;;;;;19.66;nan;98908.91;5036479;28;20199;-76
2023/08/27 07:28:11;;;;;;;1.93;1.73;;;;;;;19.67;nan;98911.38;5036899;28;20208;-77
2023/08/27 07:30:36;;;;;;;3.40;1.40;;;;;;;19.67;nan;98914.03;5035537;28;20299;-78
2023/08/27 07:33:06;;;;;;;3.30;1.90;;;;;;;19.73;nan;98911.69;5033546;28;20227;-78
2023/08/27 07:35:31;;;;;;;3.13;1.97;;;;;;;19.75;nan;98899.03;5052926;28;20479;-77
2023/08/27 07:37:58;;;;;;;2.90;2.10;;;;;;;19.77;nan;98892.53;5056741;28;20538;-77
2023/08/27 07:40:24;;;;;;;3.47;2.07;;;;;;;19.82;nan;98913.31;5035555;28;20189;-77
2023/08/27 07:42:49;;;;;;;3.00;2.40;;;;;;;19.89;nan;98908.94;5036389;28;20501;-78
2023/08/27 07:45:15;;;;;;;2.80;2.03;;;;;;;19.97;nan;98914.25;5053832;28;20276;-78
2023/08/27 07:47:40;;;;;;;3.00;1.87;;;;;;;20.02;nan;98911.06;5037053;28;20300;-77
2023/08/27 07:50:06;;;;;;;5.10;2.50;;;;;;;20.05;nan;98908.03;5035732;28;20212;-78
2023/08/27 07:52:32;;;;;;;3.17;1.90;;;;;;;20.09;nan;98922.66;5036578;28;20599;-77
2023/08/27 07:54:57;;;;;;;2.43;2.00;;;;;;;20.11;nan;98923.31;5037363;28;20429;-75
2023/08/27 07:57:23;;;;;;;2.53;2.33;;;;;;;20.14;nan;98917.63;5036496;28;20200;-77
2023/08/27 07:59:51;;;;;;;4.13;2.13;;;;;;;20.18;nan;98915.47;5034487;28;20463;-77
2023/08/27 08:02:17;;;;;;;2.70;1.80;;;;;;;20.24;nan;98909.41;5053072;28;20676;-77
2023/08/27 08:04:44;;;;;;;3.40;2.70;;;;;;;20.28;nan;98922.22;5035611;28;21147;-77
2023/08/27 08:07:10;;;;;;;2.80;1.80;;;;;;;20.33;nan;98930.53;5051195;28;20463;-75
2023/08/27 08:09:35;;;;;;;4.70;2.23;;;;;;;20.38;nan;98937.16;5052051;28;20221;-77
2023/08/27 08:12:01;;;;;;;3.07;2.30;;;;;;;20.42;nan;98935.81;5052600;28;20695;-78
2023/08/27 08:14:26;;;;;;;2.70;1.83;;;;;;;20.43;nan;98943.63;5053682;28;20294;-77
2023/08/27 08:16:53;;;;;;;2.50;1.90;;;;;;;20.44;nan;98950.63;5053512;28;20197;-77
2023/08/27 08:19:19;;;;;;;2.60;1.93;;;;;;;20.49;nan;98950.91;5052951;28;20764;-76
2023/08/27 08:21:45;;;;;;;1.83;1.57;;;;;;;20.53;nan;98949.59;5051241;28;20994;-78
2023/08/27 08:24:10;;;;;;;4.50;2.20;;;;;;;20.55;nan;98950.25;5053334;28;20509;-77
2023/08/27 08:26:35;;;;;;;4.33;1.90;;;;;;;20.54;nan;98958.41;5050934;28;20208;-77
2023/08/27 08:29:02;;;;;;;2.37;1.73;;;;;;;20.55;nan;98955.59;5053082;28;20201;-78
2023/08/27 08:31:28;;;;;;;3.67;2.30;;;;;;;20.58;nan;98957.06;5052975;28;20213;-77
2023/08/27 08:33:53;;;;;;;1.83;1.40;;;;;;;20.61;nan;98959.38;5052810;28;20423;-77
2023/08/27 08:36:18;;;;;;;3.00;2.13;;;;;;;20.67;nan;98949.84;5050001;28;20450;-76
2023/08/27 08:38:44;;;;;;;2.30;2.10;;;;;;;20.71;nan;98953.78;5051896;28;20538;-77
2023/08/27 08:41:11;;;;;;;2.43;2.20;;;;;;;20.75;nan;98960.44;5053236;28;20304;-76
2023/08/27 08:43:44;;;;;;;3.23;1.63;;;;;;;20.78;nan;98955.56;5052831;28;20374;-76
2023/08/27 08:46:13;;;;;;;3.63;1.67;;;;;;;20.81;nan;98933.03;5050628;28;20420;-77
2023/08/27 08:48:42;;;;;;;4.43;1.97;;;;;;;20.84;nan;98915.81;5053508;28;20444;-78
2023/08/27 08:51:11;;;;;;;2.30;2.10;;;;;;;20.85;nan;98901.50;5051568;28;20447;-79
2023/08/27 08:53:41;;;;;;;3.70;2.20;;;;;;;20.87;nan;98883.44;5050229;28;20971;-77
2023/08/27 08:56:11;;;;;;;2.63;2.40;;;;;;;20.95;nan;98881.53;5051502;28;20524;-76
2023/08/27 08:58:38;;;;;;;4.50;2.67;;;;;;;21.04;nan;98884.94;5051329;28;20425;-78
2023/08/27 09:01:04;;;;;;;3.03;2.67;;;;;;;21.14;nan;98898.88;5053226;28;20434;-77
2023/08/27 09:03:32;;;;;;;4.13;2.50;;;;;;;21.23;nan;98894.25;5030914;28;21018;-77
2023/08/27 09:05:57;;;;;;;3.75;2.40;;;;;;;21.31;nan;98893.34;5033141;28;20524;-77
2023/08/27 09:08:23;;;;;;;4.80;2.13;;;;;;;21.34;nan;98901.81;5048538;28;20205;-77
2023/08/27 09:10:49;;;;;;;3.17;2.53;;;;;;;21.35;nan;98911.47;5051944;28;20259;-77
2023/08/27 09:13:20;;;;;;;5.03;1.83;;;;;;;21.37;nan;98913.97;5051372;28;20217;-77
2023/08/27 09:15:47;;;;;;;3.60;2.43;;;;;;;21.40;nan;98914.44;5051048;28;20548;-77
2023/08/27 09:18:13;;;;;;;3.37;2.40;;;;;;;21.50;nan;98924.06;5050601;28;20437;-77
2023/08/27 09:20:38;;;;;;;1.60;1.50;;;;;;;21.54;nan;98923.47;5051598;28;20434;-77
2023/08/27 09:23:04;;;;;;;2.57;1.80;;;;;;;21.55;nan;98924.31;5050111;28;20794;-77
2023/08/27 09:25:29;;;;;;;3.60;2.70;;;;;;;21.56;nan;98917.97;5051068;28;21193;-77
2023/08/27 09:27:55;;;;;;;3.90;2.47;;;;;;;21.56;nan;98920.63;5051237;28;20244;-77
2023/08/27 09:30:22;;;;;;;2.57;2.00;;;;;;;21.58;nan;98918.63;5052154;28;20224;-77
2023/08/27 09:32:47;;;;;;;2.73;2.27;;;;;;;21.61;nan;98919.06;5046718;28;20218;-78
2023/08/27 09:35:13;;;;;;;1.90;1.70;;;;;;;21.69;nan;98922.66;5050067;28;20553;-77
2023/08/27 09:37:40;;;;;;;4.93;2.50;;;;;;;21.76;nan;98934.25;5051936;28;20225;-77
2023/08/27 09:40:07;;;;;;;2.50;2.13;;;;;;;21.82;nan;98929.00;5050701;28;20228;-76
2023/08/27 09:42:33;;;;;;;3.03;2.03;;;;;;;21.91;nan;98928.91;5050009;28;20462;-77
2023/08/27 09:44:58;;;;;;;5.77;2.70;;;;;;;21.96;nan;98921.16;5030723;28;20490;-77
2023/08/27 09:47:31;;;;;;;2.23;1.97;;;;;;;21.98;nan;98924.44;5050964;28;20275;-77
2023/08/27 09:50:03;;;;;;;2.13;1.50;;;;;;;22.01;nan;98910.72;5051808;28;20749;-77
2023/08/27 09:52:28;;;;;;;4.47;2.50;;;;;;;22.03;nan;98911.34;5051679;28;20483;-77
2023/08/27 09:54:54;;;;;;;2.10;1.90;;;;;;;22.10;nan;98922.94;5051689;28;20513;-77
2023/08/27 09:57:20;;;;;;;3.10;1.50;;;;;;;22.15;nan;98919.72;5050911;28;20601;-77
2023/08/27 09:59:46;;;;;;;4.20;2.43;;;;;;;22.23;nan;98908.94;5049279;28;20215;-77
2023/08/27 10:02:13;;;;;;;2.53;2.00;;;;;;;22.34;nan;98902.25;5050575;28;20462;-77
2023/08/27 10:04:50;;;;;;;4.80;2.00;;;;;;;22.47;nan;98903.19;5051406;28;20818;-78
2023/08/27 10:07:16;;;;;;;6.93;2.30;;;;;;;22.57;nan;98907.38;5049472;28;20434;-78
2023/08/27 10:12:36;;;;;;;2.30;2.00;;;;;;;22.62;nan;98913.81;4979741;28;20431;-78
2023/08/27 10:15:04;;;;;;;3.10;1.80;;;;;;;22.64;nan;98906.44;4985851;28;20486;-78
2023/08/27 10:17:31;;;;;;;1.80;1.70;;;;;;;22.72;nan;98908.97;4996866;28;20191;-77
2023/08/27 10:20:00;;;;;;;4.10;2.20;;;;;;;22.87;nan;98911.59;4998672;28;21171;-77
2023/08/27 10:22:26;;;;;;;3.53;1.90;;;;;;;23.07;nan;98906.41;5015882;28;20430;-77
2023/08/27 10:24:51;;;;;;;2.70;1.73;;;;;;;23.23;nan;98896.41;5009977;28;20415;-77
2023/08/27 10:27:17;;;;;;;2.10;1.93;;;;;;;23.32;nan;98896.03;5011511;28;20522;-77
2023/08/27 10:29:44;;;;;;;2.90;1.60;;;;;;;23.44;nan;98892.78;5012975;28;20209;-80
2023/08/27 10:32:10;;;;;;;2.60;1.83;;;;;;;23.55;nan;98893.09;5022846;28;20212;-81
2023/08/27 10:34:35;;;;;;;3.73;2.07;;;;;;;23.62;nan;98888.56;5022803;28;20456;-81
2023/08/27 10:37:06;;;;;;;3.97;1.67;;;;;;;23.69;nan;98895.81;5020184;28;20468;-81
2023/08/27 10:39:33;;;;;;;1.40;1.30;;;;;;;23.72;nan;98900.81;5021142;28;20764;-81
2023/08/27 10:41:58;;;;;;;2.40;1.70;;;;;;;23.79;nan;98902.50;5021546;28;20553;-81
2023/08/27 10:44:24;;;;;;;4.23;2.60;;;;;;;23.85;nan;98900.88;5024518;28;21376;-81
2023/08/27 10:47:10;;;;;;;2.57;1.50;;;;;;;23.89;nan;98898.59;5026639;28;20228;-81
2023/08/27 10:49:39;;;;;;;1.87;1.47;;;;;;;23.86;nan;98891.78;5022653;28;20205;-81
2023/08/27 10:52:18;;;;;;;4.80;1.80;;;;;;;23.86;nan;98886.44;5020608;28;20453;-81
2023/08/27 10:54:48;;;;;;;2.80;1.40;;;;;;;23.86;nan;98881.06;5024987;28;20435;-81
2023/08/27 10:57:36;;;;;;;1.40;1.30;;;;;;;23.90;nan;98893.06;5020571;28;20535;-81
2023/08/27 11:00:12;;;;;;;2.20;1.60;;;;;;;23.90;nan;98903.78;5022076;28;20451;-81
2023/08/27 11:02:57;;;;;;;2.27;1.50;;;;;;;23.95;nan;98901.34;5023474;28;20451;-81
2023/08/27 11:05:29;;;;;;;1.77;1.40;;;;;;;24.04;nan;98904.66;5021173;28;20415;-81
2023/08/27 11:08:01;;;;;;;1.50;1.30;;;;;;;24.11;nan;98901.97;5026181;28;20448;-81
2023/08/27 11:10:32;;;;;;;3.40;1.30;;;;;;;24.13;nan;98908.78;5020460;28;20463;-81
2023/08/27 11:12:58;;;;;;;2.37;1.67;;;;;;;24.15;nan;98892.50;5015104;28;20511;-76
2023/08/27 11:15:32;;;;;;;2.77;1.67;;;;;;;24.20;nan;98890.03;5013801;28;20831;-76
2023/08/27 11:17:59;;;;;;;1.87;1.23;;;;;;;24.23;nan;98895.00;5005302;28;20278;-76
2023/08/27 11:20:26;;;;;;;1.53;1.43;;;;;;;24.15;nan;98900.56;5013004;28;20479;-76
2023/08/27 11:23:00;;;;;;;1.47;1.30;;;;;;;24.11;nan;98905.47;5014671;28;20451;-76
2023/08/27 11:25:27;;;;;;;1.47;1.33;;;;;;;24.18;nan;98895.59;5014769;28;20425;-76
2023/08/27 11:27:54;;;;;;;1.60;1.50;;;;;;;24.23;nan;98893.13;5013813;28;20550;-76
2023/08/27 11:30:23;;;;;;;3.07;1.67;;;;;;;24.24;nan;98891.28;5014144;28;20447;-76
2023/08/27 11:32:49;;;;;;;1.40;1.00;;;;;;;24.18;nan;98878.69;5013552;28;20472;-76
2023/08/27 11:35:14;;;;;;;1.70;1.33;;;;;;;24.17;nan;98869.81;5013167;28;20456;-76
2023/08/27 11:37:40;;;;;;;1.57;1.30;;;;;;;24.11;nan;98881.34;5015700;28;20263;-75
2023/08/27 11:40:15;;;;;;;1.70;1.10;;;;;;;24.08;nan;98882.56;5012730;28;20203;-76
2023/08/27 11:42:53;;;;;;;1.97;1.30;;;;;;;24.11;nan;98867.09;5013372;28;20257;-76
2023/08/27 11:45:35;;;;;;;2.07;1.57;;;;;;;24.16;nan;98861.94;5009125;28;20554;-76
2023/08/27 11:48:07;;;;;;;5.90;1.30;;;;;;;24.30;nan;98852.88;5014441;28;20452;-76
2023/08/27 11:50:34;;;;;;;1.87;1.30;;;;;;;24.50;nan;98843.03;5012933;28;20472;-76
2023/08/27 11:53:03;;;;;;;2.10;1.50;;;;;;;24.58;nan;98841.19;5012631;28;20480;-76